KOWI

Ottawa Municipal Airport

Ottawa, Kansas, USA
METAR KOWI 161755Z AUTO 08005KT 1/4SM -UP OVC003 01/01 A3017 RMK AO2
Observed Flight Rules
Jan-16 @ 17:55 UTC (30 minutes ago) Instrument Flight Rules
Wind Visibility Clouds Conditions
80° at 5 knots 1/4 miles
  • Overcast at 300' AGL
  • Unknown precipitation
Temperatures Readings
Current 1°C / 34°F
Dewpoint 1°C / 34°F
Humidity 100%
Altimeter 30.17" Hg
Pressure 1021.72 hPa
Elevation 292
METAR KOWI 161755Z AUTO 08005KT 1/4SM -UP OVC003 01/01 A3017 RMK AO2
Observed Flight Rules
Jan-16 @ 17:55 UTC
(30 minutes ago)
LIFR
Wind Visibility
80° at 5 knots 1/4 miles
Clouds
  • Overcast at 300' AGL
Conditions
  • Unknown precipitation
Temperature Dewpoint
1°C / 34°F 1°C / 34°F
Humidity Altimeter Pressure
100% 30.17" Hg 1021.72 hPa